Time;durP1;ratioP1;P1;durP2;ratioP2;P2;SDS_P1;SDS_P2;PMS_P1;PMS_P2;Temp;Humidity;BMP_temperature;BMP_pressure;BME280_temperature;BME280_humidity;BME280_pressure;Samples;Min_cycle;Max_cycle;Signal;HPM_P1;HPM_P2
2021/12/04 00:00:07;;;;;;;13.27;6.10;;;22.50;99.90;;;;;;5098106;28;20727;-73
2021/12/04 00:02:35;;;;;;;7.93;5.97;;;22.60;99.90;;;;;;5097917;28;20030;-75
2021/12/04 00:05:04;;;;;;;10.55;5.90;;;22.70;99.90;;;;;;5096225;28;20292;-72
2021/12/04 00:07:33;;;;;;;7.03;5.50;;;22.80;99.90;;;;;;5090829;28;20027;-75
2021/12/04 00:10:03;;;;;;;7.50;5.40;;;22.90;99.90;;;;;;5095108;28;20035;-75
2021/12/04 00:12:32;;;;;;;5.88;5.07;;;22.90;99.90;;;;;;5096106;28;20030;-70
2021/12/04 00:15:00;;;;;;;8.25;5.22;;;22.90;99.90;;;;;;5099441;28;20410;-72
2021/12/04 00:17:27;;;;;;;7.18;4.57;;;22.70;99.90;;;;;;5103315;28;20056;-70
2021/12/04 00:19:55;;;;;;;7.13;2.40;;;22.80;99.90;;;;;;5097656;28;20024;-69
2021/12/04 00:22:22;;;;;;;9.18;3.03;;;22.60;99.90;;;;;;5096618;28;20024;-72
2021/12/04 00:24:49;;;;;;;4.43;2.47;;;22.50;99.90;;;;;;5099193;28;20028;-72
2021/12/04 00:27:16;;;;;;;3.38;2.22;;;22.50;99.90;;;;;;5101864;27;20370;-73
2021/12/04 00:29:43;;;;;;;5.10;3.30;;;22.50;99.90;;;;;;5099475;28;20560;-73
2021/12/04 00:32:19;;;;;;;4.15;1.90;;;22.60;99.90;;;;;;5094448;28;20115;-66
2021/12/04 00:34:53;;;;;;;4.47;2.80;;;22.70;99.90;;;;;;5096648;28;20482;-68
2021/12/04 00:51:18;;;;;;;5.03;3.40;;;23.10;99.90;;;;;;5073755;28;20074;-68
2021/12/04 00:53:47;;;;;;;6.32;3.58;;;23.60;99.90;;;;;;5093518;28;20684;-69
2021/12/04 00:56:15;;;;;;;4.82;2.80;;;23.70;99.90;;;;;;5093748;28;20020;-68
2021/12/04 00:58:43;;;;;;;7.03;4.25;;;23.90;99.90;;;;;;5095803;28;20479;-67
2021/12/04 01:01:10;;;;;;;6.68;4.63;;;24.00;99.90;;;;;;5094108;28;20837;-70
2021/12/04 01:03:38;;;;;;;6.05;4.70;;;24.00;99.90;;;;;;5092061;28;20031;-67
2021/12/04 01:06:07;;;;;;;7.15;4.70;;;24.00;99.90;;;;;;5090134;28;20020;-73
2021/12/04 01:08:35;;;;;;;6.47;4.72;;;23.80;99.90;;;;;;5094717;28;20106;-68
2021/12/04 01:11:03;;;;;;;7.03;4.82;;;23.50;99.90;;;;;;5099470;28;20076;-69
2021/12/04 01:13:32;;;;;;;6.07;3.80;;;23.50;99.90;;;;;;5104155;28;20454;-74
2021/12/04 01:16:00;;;;;;;6.50;4.15;;;23.40;99.90;;;;;;5107400;28;20022;-67
2021/12/04 01:18:26;;;;;;;5.35;3.00;;;23.30;99.90;;;;;;5105566;28;20019;-68
2021/12/04 01:20:54;;;;;;;4.82;2.88;;;23.30;99.90;;;;;;5104532;28;20031;-67
2021/12/04 01:23:21;;;;;;;4.35;2.80;;;23.10;99.90;;;;;;5089249;28;20492;-71
2021/12/04 01:25:48;;;;;;;5.05;2.30;;;23.00;99.90;;;;;;5106644;28;20024;-68
2021/12/04 01:28:15;;;;;;;5.03;2.60;;;22.80;99.90;;;;;;5107214;28;20512;-77
2021/12/04 01:30:42;;;;;;;5.00;2.25;;;22.60;99.90;;;;;;5106689;28;20046;-73
2021/12/04 01:33:09;;;;;;;3.85;1.88;;;22.50;99.90;;;;;;5088737;28;20028;-74
2021/12/04 01:35:36;;;;;;;3.88;2.28;;;22.40;99.90;;;;;;5100942;28;20023;-69
2021/12/04 01:38:03;;;;;;;7.75;2.58;;;22.30;99.90;;;;;;5101709;28;20410;-65
2021/12/04 01:40:30;;;;;;;5.05;2.42;;;22.30;99.90;;;;;;5107207;28;20035;-70
2021/12/04 01:42:57;;;;;;;6.50;2.20;;;22.30;99.90;;;;;;5108266;28;20027;-69
2021/12/04 01:45:24;;;;;;;5.93;2.42;;;22.20;99.90;;;;;;5107504;28;20084;-73
2021/12/04 01:47:59;;;;;;;7.32;2.72;;;22.30;99.90;;;;;;5104140;28;20055;-71
2021/12/04 01:50:27;;;;;;;4.93;2.60;;;22.20;99.90;;;;;;5103484;28;20057;-70
2021/12/04 01:52:56;;;;;;;4.50;2.30;;;22.40;99.90;;;;;;5108031;28;20028;-70
2021/12/04 01:55:27;;;;;;;5.35;2.92;;;22.60;99.90;;;;;;5100642;28;20792;-71
2021/12/04 01:57:55;;;;;;;6.47;2.60;;;22.70;99.90;;;;;;5107154;28;20034;-71
2021/12/04 02:00:22;;;;;;;7.22;2.75;;;22.60;99.90;;;;;;5103926;28;20505;-70
2021/12/04 02:02:49;;;;;;;10.98;2.90;;;22.40;99.90;;;;;;5086885;28;20092;-72
2021/12/04 02:05:16;;;;;;;9.68;2.78;;;22.30;99.90;;;;;;5109157;28;20039;-71
2021/12/04 02:07:44;;;;;;;8.85;4.45;;;22.40;99.90;;;;;;5086177;28;20043;-72
2021/12/04 02:10:11;;;;;;;7.50;2.85;;;22.70;99.90;;;;;;5102723;28;20059;-68
2021/12/04 02:12:38;;;;;;;8.85;4.18;;;23.00;99.90;;;;;;5103981;28;20031;-74
2021/12/04 02:15:11;;;;;;;7.72;3.10;;;23.00;99.90;;;;;;5106680;28;20073;-75
2021/12/04 02:17:38;;;;;;;10.48;3.20;;;22.80;99.90;;;;;;5102577;28;20089;-69
2021/12/04 02:20:16;;;;;;;8.52;3.00;;;22.60;99.90;;;;;;5099853;28;20039;-68
2021/12/04 02:22:43;;;;;;;9.07;4.30;;;22.80;99.90;;;;;;5104171;28;20022;-73
2021/12/04 02:25:10;;;;;;;6.72;2.67;;;23.00;99.90;;;;;;5086619;28;20547;-69
2021/12/04 02:27:38;;;;;;;5.10;2.80;;;23.30;99.90;;;;;;5099667;28;20091;-68
2021/12/04 02:30:08;;;;;;;8.57;2.78;;;23.70;99.90;;;;;;5101773;28;20023;-72
2021/12/04 02:32:36;;;;;;;9.32;2.78;;;23.80;99.90;;;;;;5105452;28;20473;-71
2021/12/04 02:35:03;;;;;;;7.97;3.03;;;23.80;99.90;;;;;;5085346;28;20059;-70
2021/12/04 02:37:33;;;;;;;7.03;2.28;;;23.90;99.90;;;;;;5102956;28;20028;-71
2021/12/04 02:40:00;;;;;;;6.65;2.65;;;24.00;99.90;;;;;;5105395;28;20034;-71
2021/12/04 02:42:30;;;;;;;10.25;3.58;;;24.40;99.90;;;;;;5102726;28;20023;-72
2021/12/04 02:44:59;;;;;;;8.18;2.53;;;24.80;99.90;;;;;;5106371;28;20024;-73
2021/12/04 02:47:28;;;;;;;6.38;3.05;;;24.60;99.90;;;;;;5103082;28;20026;-71
2021/12/04 02:49:56;;;;;;;8.25;3.10;;;24.70;99.90;;;;;;5103992;28;20082;-70
2021/12/04 02:52:24;;;;;;;7.03;2.75;;;25.20;99.90;;;;;;5101311;28;20036;-67
2021/12/04 02:54:53;;;;;;;12.43;3.53;;;26.20;99.90;;;;;;5106879;28;20465;-68
2021/12/04 02:57:21;;;;;;;5.13;2.70;;;26.30;99.20;;;;;;5083255;28;20036;-70
2021/12/04 02:59:49;;;;;;;5.63;2.65;;;25.90;99.70;;;;;;5104010;28;20047;-68
2021/12/04 03:02:20;;;;;;;10.57;3.40;;;26.00;99.90;;;;;;5104370;28;20072;-68
2021/12/04 03:04:52;;;;;;;5.25;2.30;;;26.60;99.70;;;;;;5102504;28;20036;-66
2021/12/04 03:07:19;;;;;;;6.30;2.70;;;26.60;98.20;;;;;;5101218;28;20024;-71
2021/12/04 03:09:47;;;;;;;5.35;2.85;;;26.70;98.30;;;;;;5102106;28;20444;-71
2021/12/04 03:12:16;;;;;;;6.05;3.10;;;26.70;98.00;;;;;;5081202;28;20058;-68
2021/12/04 03:14:43;;;;;;;6.35;3.00;;;27.00;98.20;;;;;;5100538;28;20172;-70
2021/12/04 03:17:10;;;;;;;5.28;2.67;;;26.90;96.90;;;;;;5082633;28;20440;-69
2021/12/04 03:19:38;;;;;;;7.35;2.80;;;25.90;98.50;;;;;;5101020;28;20031;-70
2021/12/04 03:22:07;;;;;;;6.80;3.00;;;25.20;99.50;;;;;;5100387;28;20019;-71
2021/12/04 03:24:38;;;;;;;5.82;2.22;;;24.90;99.90;;;;;;5102410;28;20027;-71
2021/12/04 03:27:05;;;;;;;6.05;2.92;;;25.00;99.90;;;;;;5102429;28;20513;-72
2021/12/04 03:29:36;;;;;;;6.55;2.58;;;25.00;99.60;;;;;;5082742;28;20592;-73
2021/12/04 03:43:06;;;;;;;6.28;2.08;;;25.20;98.60;;;;;;5101762;28;20077;-73
2021/12/04 03:45:35;;;;;;;7.05;2.35;;;25.10;98.50;;;;;;5104668;28;20027;-67
2021/12/04 03:48:08;;;;;;;6.88;2.40;;;25.10;98.80;;;;;;5100079;28;20478;-71
2021/12/04 03:50:37;;;;;;;7.47;3.88;;;25.50;97.40;;;;;;5103593;28;20023;-73
2021/12/04 03:53:05;;;;;;;5.55;3.15;;;25.60;97.00;;;;;;5102627;28;20539;-75
2021/12/04 03:55:32;;;;;;;5.25;2.30;;;26.00;96.30;;;;;;5102989;28;20070;-69
2021/12/04 03:57:59;;;;;;;5.55;2.50;;;26.10;95.20;;;;;;5102510;28;20047;-69
2021/12/04 04:00:28;;;;;;;3.80;2.08;;;26.30;95.40;;;;;;5100139;28;20011;-70
2021/12/04 04:02:58;;;;;;;5.43;1.90;;;26.60;94.90;;;;;;5100124;28;20027;-69
2021/12/04 04:05:27;;;;;;;6.72;2.65;;;26.80;94.10;;;;;;5104113;28;20019;-75
2021/12/04 04:07:54;;;;;;;4.15;2.15;;;26.30;95.00;;;;;;5103965;28;20473;-67
2021/12/04 04:10:21;;;;;;;3.95;1.90;;;26.10;95.50;;;;;;5103425;28;20757;-67
2021/12/04 04:12:49;;;;;;;7.30;3.00;;;26.20;96.10;;;;;;5102393;27;20374;-65
2021/12/04 04:15:16;;;;;;;5.88;1.90;;;26.40;95.40;;;;;;5099886;28;20031;-67
2021/12/04 04:17:44;;;;;;;6.53;2.10;;;26.10;95.40;;;;;;5097711;27;20418;-72
2021/12/04 04:20:17;;;;;;;6.43;2.22;;;25.70;96.30;;;;;;5104118;28;20030;-74
2021/12/04 04:22:47;;;;;;;6.47;2.10;;;25.40;95.90;;;;;;5101224;28;20066;-74
2021/12/04 04:25:16;;;;;;;6.05;2.10;;;25.00;97.50;;;;;;5101450;28;20821;-75
2021/12/04 04:27:44;;;;;;;7.15;2.78;;;24.70;97.70;;;;;;5099089;28;20051;-74
2021/12/04 04:30:17;;;;;;;6.47;2.55;;;24.40;98.00;;;;;;5102992;28;20504;-77
2021/12/04 04:32:50;;;;;;;5.22;2.17;;;24.20;98.50;;;;;;5101780;28;20050;-75
2021/12/04 04:35:21;;;;;;;7.05;2.90;;;24.10;98.50;;;;;;5101387;28;20027;-76
2021/12/04 05:00:05;;;;;;;4.93;3.00;;;22.70;99.90;;;;;;5105202;28;20035;-72
2021/12/04 05:13:52;;;;;;;5.03;1.77;;;22.40;99.90;;;;;;5080736;28;20503;-74
2021/12/04 05:16:21;;;;;;;5.00;1.92;;;22.20;99.90;;;;;;5111384;28;20047;-74
2021/12/04 05:18:58;;;;;;;6.60;1.83;;;22.00;99.90;;;;;;5108025;28;20102;-77
2021/12/04 05:21:25;;;;;;;5.18;2.53;;;21.90;99.90;;;;;;5103618;28;20021;-73
2021/12/04 05:23:55;;;;;;;4.65;2.28;;;21.70;99.90;;;;;;5088147;28;20131;-72
2021/12/04 05:26:31;;;;;;;7.55;2.30;;;21.60;99.90;;;;;;5087284;28;20028;-76
2021/12/04 05:29:00;;;;;;;9.15;2.55;;;21.40;99.90;;;;;;5105152;28;20023;-72
2021/12/04 05:31:28;;;;;;;6.43;2.78;;;21.10;99.90;;;;;;5106669;28;20028;-72
2021/12/04 05:33:55;;;;;;;5.72;2.60;;;20.90;99.90;;;;;;4730490;28;10000118;-73
2021/12/04 05:36:26;;;;;;;7.93;3.08;;;20.80;99.90;;;;;;5109706;28;20085;-71
2021/12/04 05:38:53;;;;;;;6.47;2.78;;;20.80;99.90;;;;;;5076844;28;20553;-71
2021/12/04 05:41:21;;;;;;;4.38;2.75;;;20.80;99.90;;;;;;5102934;28;20110;-73
2021/12/04 05:43:48;;;;;;;8.52;3.17;;;20.90;99.90;;;;;;5090758;28;20223;-71
2021/12/04 05:46:24;;;;;;;7.40;3.08;;;20.80;99.90;;;;;;5094781;28;20031;-67
2021/12/04 05:48:58;;;;;;;9.80;4.03;;;20.60;99.90;;;;;;5096109;28;20536;-69
2021/12/04 05:56:53;;;;;;;12.82;3.95;;;20.60;99.90;;;;;;5032763;28;20584;-65
2021/12/04 05:59:21;;;;;;;10.93;3.92;;;20.50;99.90;;;;;;5084383;28;20032;-68
2021/12/04 06:01:48;;;;;;;7.75;3.80;;;20.50;99.90;;;;;;5103603;28;20089;-66
2021/12/04 06:04:15;;;;;;;8.70;3.83;;;20.50;99.90;;;;;;5106482;28;20034;-67
2021/12/04 06:06:44;;;;;;;9.13;3.92;;;20.50;99.90;;;;;;5103298;28;20059;-69
2021/12/04 06:09:11;;;;;;;12.32;3.97;;;20.50;99.90;;;;;;5098685;28;20051;-67
2021/12/04 06:11:38;;;;;;;9.85;3.67;;;20.50;99.90;;;;;;5092936;28;20024;-66
2021/12/04 06:14:05;;;;;;;7.43;4.20;;;20.50;99.90;;;;;;5096803;28;20031;-69
2021/12/04 06:16:32;;;;;;;8.90;4.03;;;20.50;99.90;;;;;;5096778;28;20031;-68
2021/12/04 06:19:09;;;;;;;9.60;4.40;;;20.50;99.90;;;;;;5103233;28;20059;-67
2021/12/04 06:24:21;;;;;;;10.77;4.22;;;20.40;99.90;;;;;;5104165;28;20472;-70
2021/12/04 06:26:50;;;;;;;15.73;5.10;;;20.30;99.90;;;;;;5101738;28;20054;-73
2021/12/04 06:29:17;;;;;;;9.57;4.50;;;20.20;99.90;;;;;;5097116;28;20145;-68
2021/12/04 06:31:44;;;;;;;6.65;4.25;;;20.20;99.90;;;;;;5096232;28;20023;-71
2021/12/04 06:34:11;;;;;;;10.98;4.65;;;20.20;99.90;;;;;;5103517;28;20114;-71
2021/12/04 06:36:38;;;;;;;7.50;4.22;;;20.30;99.90;;;;;;5097506;28;20020;-70
2021/12/04 06:39:05;;;;;;;12.40;5.00;;;20.30;99.90;;;;;;5102424;28;20032;-69
2021/12/04 06:41:32;;;;;;;9.82;4.90;;;20.50;99.90;;;;;;5101549;28;20024;-70
2021/12/04 06:43:59;;;;;;;11.85;4.97;;;20.60;99.90;;;;;;5099701;28;20032;-71
2021/12/04 06:46:27;;;;;;;11.70;5.25;;;20.60;99.90;;;;;;5097645;28;20084;-69
2021/12/04 06:49:13;;;;;;;10.55;4.47;;;20.60;99.90;;;;;;5094157;28;20012;-66
2021/12/04 06:51:44;;;;;;;7.90;4.75;;;20.60;99.90;;;;;;5098135;28;20032;-69
2021/12/04 06:54:17;;;;;;;11.23;4.65;;;20.30;99.90;;;;;;5093106;28;20019;-74
2021/12/04 06:56:45;;;;;;;15.10;4.95;;;20.20;99.90;;;;;;5098343;28;20031;-72
2021/12/04 06:59:16;;;;;;;8.57;4.78;;;20.30;99.90;;;;;;5094431;28;20032;-68
2021/12/04 07:01:43;;;;;;;6.80;4.40;;;20.40;99.90;;;;;;5092595;28;20674;-70
2021/12/04 07:04:11;;;;;;;9.80;4.40;;;20.40;99.90;;;;;;5092040;28;20116;-70
2021/12/04 07:06:38;;;;;;;11.38;4.70;;;20.40;99.90;;;;;;5101598;28;20114;-67
2021/12/04 07:09:06;;;;;;;10.00;4.68;;;20.30;99.90;;;;;;5098076;28;20059;-69
2021/12/04 07:11:33;;;;;;;7.95;4.93;;;20.20;99.90;;;;;;5101431;28;20027;-70
2021/12/04 07:14:00;;;;;;;10.18;4.40;;;20.20;99.90;;;;;;5080675;28;20476;-69
2021/12/04 07:16:27;;;;;;;8.23;4.53;;;20.20;99.90;;;;;;5098043;28;20024;-70
2021/12/04 07:18:54;;;;;;;10.45;5.05;;;20.10;99.90;;;;;;5095532;28;20032;-66
2021/12/04 07:21:23;;;;;;;7.32;5.07;;;20.00;99.90;;;;;;5079814;28;20489;-67
2021/12/04 07:23:50;;;;;;;10.25;4.90;;;19.90;99.90;;;;;;5096879;28;20748;-67
2021/12/04 07:26:19;;;;;;;9.48;5.15;;;19.80;99.90;;;;;;5096512;28;20629;-69
2021/12/04 07:28:46;;;;;;;10.70;4.65;;;19.70;99.90;;;;;;5077695;28;20101;-72
2021/12/04 07:31:13;;;;;;;9.10;4.57;;;19.80;99.90;;;;;;5078871;28;20026;-70
2021/12/04 07:33:40;;;;;;;10.32;4.43;;;19.70;99.90;;;;;;5079537;28;20055;-69
2021/12/04 07:36:07;;;;;;;8.38;4.63;;;19.70;99.90;;;;;;5079044;28;20020;-70
2021/12/04 07:38:34;;;;;;;9.48;5.18;;;19.70;99.90;;;;;;5057082;28;20032;-71
2021/12/04 07:41:03;;;;;;;8.30;4.32;;;19.50;99.90;;;;;;5080350;28;20044;-70
2021/12/04 07:43:30;;;;;;;6.07;4.30;;;19.50;99.90;;;;;;5074496;28;20023;-70
2021/12/04 07:45:57;;;;;;;7.32;3.90;;;19.50;99.90;;;;;;5080041;28;20027;-74
2021/12/04 07:48:25;;;;;;;8.95;4.30;;;19.50;99.90;;;;;;5080617;28;20027;-75
2021/12/04 07:50:52;;;;;;;6.55;4.28;;;19.30;99.90;;;;;;5077566;28;20028;-72
2021/12/04 07:53:19;;;;;;;9.57;4.90;;;19.30;99.90;;;;;;5063441;28;20043;-69
2021/12/04 07:55:46;;;;;;;7.65;4.47;;;19.40;99.90;;;;;;5080261;28;20107;-71
2021/12/04 07:58:14;;;;;;;6.40;4.15;;;19.50;99.90;;;;;;5079145;28;20019;-69
2021/12/04 08:00:42;;;;;;;5.75;4.05;;;19.40;99.90;;;;;;5080368;28;20028;-74
2021/12/04 08:03:09;;;;;;;5.82;4.53;;;19.40;99.90;;;;;;5077983;28;20024;-69
2021/12/04 08:05:36;;;;;;;8.70;4.68;;;19.50;99.90;;;;;;5082167;28;20044;-72
2021/12/04 08:08:03;;;;;;;8.23;5.20;;;19.50;99.90;;;;;;5074139;28;20065;-71
2021/12/04 08:10:31;;;;;;;9.00;4.63;;;19.40;99.90;;;;;;5078737;28;20536;-69
2021/12/04 08:12:59;;;;;;;5.75;4.07;;;19.40;99.90;;;;;;5077325;28;20039;-72
2021/12/04 08:15:26;;;;;;;11.10;4.60;;;19.30;99.90;;;;;;5078476;28;20025;-69
2021/12/04 08:17:53;;;;;;;9.05;4.65;;;19.20;99.90;;;;;;5082675;28;20028;-67
2021/12/04 08:20:21;;;;;;;9.82;5.13;;;19.20;99.90;;;;;;5079198;28;20059;-72
2021/12/04 08:22:48;;;;;;;8.73;5.55;;;19.10;99.90;;;;;;5078458;28;20024;-70
2021/12/04 08:25:18;;;;;;;6.82;4.15;;;19.10;99.90;;;;;;5079302;28;20070;-67
2021/12/04 08:27:47;;;;;;;8.18;4.75;;;19.00;99.90;;;;;;5088639;28;20112;-71
2021/12/04 08:30:23;;;;;;;9.10;5.30;;;19.10;99.90;;;;;;5098004;28;20024;-75
2021/12/04 08:32:56;;;;;;;11.32;4.90;;;19.20;99.90;;;;;;5096524;28;20024;-67
2021/12/04 08:35:24;;;;;;;;;;;19.20;99.90;;;;;;5099349;28;20031;-69
2021/12/04 08:37:53;;;;;;;10.57;6.03;;;19.20;99.90;;;;;;5098876;28;19907;-71
2021/12/04 08:40:20;;;;;;;8.15;4.95;;;19.20;99.90;;;;;;5080299;28;20036;-70
2021/12/04 08:42:47;;;;;;;8.30;5.10;;;19.20;99.90;;;;;;5076412;28;20047;-75
2021/12/04 08:45:17;;;;;;;9.73;5.53;;;19.10;99.90;;;;;;5097064;28;20023;-74
2021/12/04 08:47:44;;;;;;;6.53;5.38;;;19.00;99.90;;;;;;5100191;28;20028;-75
2021/12/04 08:50:15;;;;;;;10.52;6.10;;;18.90;99.90;;;;;;5099134;28;20028;-74
2021/12/04 08:52:42;;;;;;;10.75;5.93;;;18.80;99.90;;;;;;5099230;28;20023;-68
2021/12/04 08:55:10;;;;;;;6.85;5.43;;;18.80;99.90;;;;;;5094167;28;20042;-67
2021/12/04 08:57:38;;;;;;;8.73;5.28;;;18.80;99.90;;;;;;5094120;28;20025;-74
2021/12/04 09:00:19;;;;;;;12.32;6.65;;;18.80;99.90;;;;;;5097449;28;20506;-68
2021/12/04 09:02:47;;;;;;;9.43;6.30;;;18.70;99.90;;;;;;5096832;28;20703;-71
2021/12/04 09:05:15;;;;;;;11.00;6.25;;;18.70;99.90;;;;;;5096292;28;20033;-71
2021/12/04 09:07:42;;;;;;;10.50;6.15;;;18.60;99.90;;;;;;5099078;28;20095;-71
2021/12/04 09:10:10;;;;;;;11.57;7.45;;;18.60;99.90;;;;;;5096850;28;20032;-68
2021/12/04 09:12:38;;;;;;;13.60;7.20;;;18.50;99.90;;;;;;5094586;28;20020;-68
2021/12/04 09:15:08;;;;;;;11.48;7.88;;;18.40;99.90;;;;;;5094995;28;20048;-70
2021/12/04 09:17:35;;;;;;;17.15;8.55;;;18.40;99.90;;;;;;5099818;28;20413;-68
2021/12/04 09:20:03;;;;;;;16.75;8.27;;;18.40;99.90;;;;;;5077196;28;20069;-71
2021/12/04 09:22:33;;;;;;;16.45;8.20;;;18.40;99.90;;;;;;5099703;28;20104;-73
2021/12/04 09:25:02;;;;;;;13.23;8.18;;;18.50;99.90;;;;;;5097611;28;20024;-68
2021/12/04 10:05:53;;;;;;;18.27;9.75;;;18.10;99.90;;;;;;5102543;28;20027;-70
2021/12/04 10:19:36;;;;;;;20.50;13.40;;;17.70;99.90;;;;;;5099471;28;20482;-69
2021/12/04 10:33:44;;;;;;;15.02;10.02;;;17.40;99.90;;;;;;5070120;28;20032;-69
2021/12/04 10:36:13;;;;;;;20.40;10.18;;;17.40;99.90;;;;;;5079179;28;20516;-70
2021/12/04 10:38:45;;;;;;;18.38;10.38;;;17.30;99.90;;;;;;5078604;28;20024;-70
2021/12/04 10:41:13;;;;;;;16.83;11.03;;;17.30;99.90;;;;;;5060993;28;20024;-75
2021/12/04 10:43:40;;;;;;;14.85;10.05;;;17.30;99.90;;;;;;5075360;28;20273;-76
2021/12/04 10:46:14;;;;;;;17.00;9.30;;;17.30;99.90;;;;;;5059050;28;20032;-74
2021/12/04 10:48:50;;;;;;;15.32;8.48;;;17.20;99.90;;;;;;5075828;28;20043;-70
2021/12/04 10:53:49;;;;;;;16.33;9.35;;;17.20;99.90;;;;;;5076749;28;20032;-73
2021/12/04 10:57:17;;;;;;;17.98;6.78;;;17.20;99.90;;;;;;5057388;28;20034;-73
2021/12/04 11:02:14;;;;;;;13.95;6.13;;;17.10;99.90;;;;;;5057656;28;20036;-69
2021/12/04 11:42:55;;;;;;;15.90;3.85;;;17.00;99.90;;;;;;5072387;28;20036;-68
2021/12/04 11:45:29;;;;;;;14.30;3.50;;;17.10;99.90;;;;;;5070082;28;20029;-72
2021/12/04 11:48:04;;;;;;;14.57;3.97;;;17.00;99.90;;;;;;5074508;28;20039;-72
2021/12/04 11:50:41;;;;;;;11.48;3.45;;;17.00;99.90;;;;;;5072416;28;20028;-70
2021/12/04 11:53:16;;;;;;;12.77;3.53;;;16.90;99.90;;;;;;5056032;28;20039;-77
2021/12/04 11:55:46;;;;;;;11.70;2.78;;;16.90;99.90;;;;;;5073590;28;20081;-78
2021/12/04 11:58:33;;;;;;;10.90;3.63;;;16.90;99.90;;;;;;5075686;28;20021;-69
2021/12/04 12:01:06;;;;;;;10.32;3.20;;;16.90;99.90;;;;;;5075202;28;20028;-73
2021/12/04 12:03:36;;;;;;;15.80;4.70;;;16.90;99.90;;;;;;5073490;28;20111;-69
2021/12/04 12:06:07;;;;;;;14.10;3.90;;;17.00;99.90;;;;;;5074181;28;20020;-70
2021/12/04 12:08:45;;;;;;;10.25;3.17;;;17.00;99.90;;;;;;5074769;28;20032;-72
2021/12/04 12:11:22;;;;;;;14.63;3.92;;;16.90;99.90;;;;;;5075718;28;20028;-72
2021/12/04 12:13:59;;;;;;;13.10;3.58;;;17.00;99.90;;;;;;5077516;28;20028;-74
2021/12/04 12:16:35;;;;;;;13.52;4.60;;;17.00;99.90;;;;;;5073467;28;20028;-70
2021/12/04 12:19:10;;;;;;;11.13;3.60;;;17.00;99.90;;;;;;5074282;28;20039;-70
2021/12/04 12:21:55;;;;;;;10.88;3.13;;;17.00;99.90;;;;;;5072277;28;20105;-68
2021/12/04 12:33:01;;;;;;;15.90;4.30;;;16.90;99.90;;;;;;5074192;28;20823;-70
2021/12/04 12:38:49;;;;;;;14.18;3.35;;;17.00;99.90;;;;;;5077209;28;20070;-73
2021/12/04 12:41:31;;;;;;;10.02;3.55;;;17.00;99.90;;;;;;5073602;28;20078;-71
2021/12/04 12:44:01;;;;;;;10.77;2.92;;;17.00;99.90;;;;;;5053627;28;20020;-72
2021/12/04 12:46:42;;;;;;;11.73;2.65;;;16.80;99.90;;;;;;5057498;28;20034;-73
2021/12/04 12:49:30;;;;;;;5.95;2.42;;;16.80;99.90;;;;;;5064757;28;20090;-72
2021/12/04 12:52:15;;;;;;;10.23;2.38;;;16.70;99.90;;;;;;5064999;28;20021;-68
2021/12/04 12:54:50;;;;;;;9.60;2.08;;;16.60;99.90;;;;;;5065090;28;20043;-69
2021/12/04 12:57:22;;;;;;;8.73;2.33;;;16.50;99.90;;;;;;5068414;28;20046;-72
2021/12/04 13:14:20;;;;;;;12.10;2.72;;;16.30;99.90;;;;;;5075020;28;20456;-70
2021/12/04 13:16:58;;;;;;;17.25;2.72;;;16.40;99.90;;;;;;5068105;28;20734;-69
2021/12/04 13:19:26;;;;;;;13.13;2.80;;;16.40;99.90;;;;;;5079659;28;20543;-69
2021/12/04 13:22:04;;;;;;;7.03;2.25;;;16.40;99.90;;;;;;5080206;28;20427;-69
2021/12/04 13:24:35;;;;;;;7.38;3.15;;;16.40;99.90;;;;;;5079201;28;20024;-69
2021/12/04 13:29:43;;;;;;;8.45;2.83;;;16.40;99.90;;;;;;5080417;28;20999;-69
2021/12/04 13:32:15;;;;;;;10.90;2.47;;;16.40;99.90;;;;;;5085733;28;20415;-69
2021/12/04 13:34:44;;;;;;;10.48;3.53;;;16.40;99.90;;;;;;5080771;28;20467;-69
2021/12/04 13:37:12;;;;;;;13.13;2.45;;;16.40;99.90;;;;;;5085995;28;20056;-75
2021/12/04 13:39:42;;;;;;;8.90;3.03;;;16.30;99.90;;;;;;5073350;28;20032;-69
2021/12/04 13:42:10;;;;;;;8.95;3.20;;;16.30;99.90;;;;;;5080219;28;20099;-73
2021/12/04 13:44:38;;;;;;;12.52;3.00;;;16.40;99.90;;;;;;5076710;28;20427;-75
2021/12/04 13:47:08;;;;;;;8.18;2.67;;;16.40;99.90;;;;;;5077842;28;20114;-76
2021/12/04 13:49:57;;;;;;;10.48;2.67;;;16.40;99.90;;;;;;5080483;28;20046;-69
2021/12/04 13:52:33;;;;;;;10.48;2.58;;;16.50;99.90;;;;;;5078577;28;20020;-69
2021/12/04 13:55:09;;;;;;;12.05;2.97;;;16.50;99.90;;;;;;5064837;28;20118;-74
2021/12/04 13:57:39;;;;;;;7.85;2.67;;;16.50;99.90;;;;;;5080227;28;20031;-75
2021/12/04 14:00:08;;;;;;;6.00;2.50;;;16.50;99.90;;;;;;5065667;28;20039;-69
2021/12/04 14:02:35;;;;;;;10.13;2.92;;;16.50;99.90;;;;;;5058910;28;20108;-75
2021/12/04 14:05:02;;;;;;;6.68;2.38;;;16.50;99.90;;;;;;5071725;28;20024;-74
2021/12/04 14:07:30;;;;;;;13.30;2.67;;;16.50;99.90;;;;;;5074438;28;20052;-69
2021/12/04 14:09:58;;;;;;;6.13;3.00;;;16.40;99.90;;;;;;5075188;28;20028;-69
2021/12/04 14:12:29;;;;;;;8.57;2.50;;;16.40;99.90;;;;;;5065590;28;20063;-75
2021/12/04 14:14:56;;;;;;;11.93;2.73;;;16.40;99.90;;;;;;5078746;28;20102;-74
2021/12/04 14:17:27;;;;;;;9.00;2.42;;;16.30;99.90;;;;;;5081575;28;20120;-74
2021/12/04 14:19:56;;;;;;;6.95;2.88;;;16.40;99.90;;;;;;5073739;28;20037;-68
2021/12/04 14:22:26;;;;;;;6.35;2.47;;;16.30;99.90;;;;;;5075848;28;20131;-73
2021/12/04 14:24:59;;;;;;;10.32;2.53;;;16.40;99.90;;;;;;5076945;28;20367;-72
2021/12/04 14:27:31;;;;;;;8.48;2.45;;;16.40;99.90;;;;;;5072190;28;20122;-70
2021/12/04 14:30:33;;;;;;;11.80;3.00;;;16.40;99.90;;;;;;5078080;28;20572;-73
2021/12/04 14:33:02;;;;;;;9.07;2.45;;;16.40;99.90;;;;;;5077252;28;20024;-69
2021/12/04 14:35:33;;;;;;;10.02;2.67;;;16.30;99.90;;;;;;5077370;28;20063;-76
2021/12/04 14:38:02;;;;;;;8.13;3.05;;;16.30;99.90;;;;;;5083035;28;20036;-73
2021/12/04 14:40:40;;;;;;;12.25;2.70;;;16.30;99.90;;;;;;5081742;28;20025;-72
2021/12/04 14:43:11;;;;;;;9.02;2.40;;;16.30;99.90;;;;;;5083326;28;20024;-73
2021/12/04 14:45:40;;;;;;;10.30;2.70;;;16.20;99.90;;;;;;5077286;28;20032;-69
2021/12/04 14:48:19;;;;;;;13.43;3.05;;;16.20;99.90;;;;;;5074366;28;20047;-74
2021/12/04 14:50:51;;;;;;;7.03;2.50;;;16.20;99.90;;;;;;5082725;28;20456;-72
2021/12/04 14:53:20;;;;;;;7.20;2.55;;;16.10;99.90;;;;;;5071993;28;20017;-76
2021/12/04 14:55:51;;;;;;;7.55;3.05;;;16.10;99.90;;;;;;5081593;28;20124;-75
2021/12/04 14:58:22;;;;;;;6.10;2.38;;;16.10;99.90;;;;;;5072196;28;20033;-70
2021/12/04 15:00:57;;;;;;;8.02;3.00;;;16.10;99.90;;;;;;5078477;28;20035;-69
2021/12/04 15:03:40;;;;;;;11.95;3.30;;;16.10;99.90;;;;;;5086322;28;20027;-74
2021/12/04 15:06:12;;;;;;;7.72;3.22;;;16.10;99.90;;;;;;5086650;28;20506;-75
2021/12/04 15:08:45;;;;;;;8.80;2.95;;;16.20;99.90;;;;;;5071457;28;20456;-73
2021/12/04 15:11:23;;;;;;;5.93;2.22;;;16.10;99.90;;;;;;5082571;28;20116;-72
2021/12/04 15:14:07;;;;;;;8.25;2.92;;;16.10;99.90;;;;;;5071813;28;20383;-72
2021/12/04 15:16:44;;;;;;;5.05;2.05;;;16.20;99.90;;;;;;5078809;28;20028;-70
2021/12/04 15:19:20;;;;;;;8.48;3.00;;;16.10;99.90;;;;;;5078960;28;20115;-72
2021/12/04 15:21:53;;;;;;;8.45;2.75;;;16.00;99.90;;;;;;5061368;28;20085;-72
2021/12/04 15:24:26;;;;;;;11.13;3.28;;;16.10;99.90;;;;;;5071127;28;20028;-73
2021/12/04 15:26:58;;;;;;;7.97;3.30;;;16.10;99.90;;;;;;5071392;28;20372;-71
2021/12/04 15:29:29;;;;;;;11.15;3.00;;;16.00;99.90;;;;;;5078827;28;20021;-70
2021/12/04 15:32:00;;;;;;;7.00;2.80;;;16.10;99.90;;;;;;5079101;28;20028;-71
2021/12/04 15:34:56;;;;;;;10.93;3.22;;;16.10;99.90;;;;;;5062459;28;20025;-75
2021/12/04 15:37:49;;;;;;;12.20;2.65;;;16.10;99.90;;;;;;5083565;28;20043;-70
2021/12/04 15:40:35;;;;;;;7.78;2.50;;;16.10;99.90;;;;;;5078649;28;20128;-73
2021/12/04 15:45:45;;;;;;;8.18;2.90;;;16.10;99.90;;;;;;5080164;28;20016;-70
2021/12/04 15:51:29;;;;;;;8.00;2.63;;;16.00;99.90;;;;;;5078176;28;20043;-72
2021/12/04 15:54:02;;;;;;;11.00;2.90;;;16.00;99.90;;;;;;5060025;28;20352;-70
2021/12/04 15:56:37;;;;;;;16.00;2.85;;;15.90;99.90;;;;;;5056744;28;20512;-75
2021/12/04 15:59:06;;;;;;;15.50;2.90;;;16.00;99.90;;;;;;5053953;28;20547;-69
2021/12/04 16:01:33;;;;;;;7.65;2.83;;;16.10;99.90;;;;;;5088358;28;20074;-74
2021/12/04 16:04:00;;;;;;;10.40;2.80;;;16.10;99.90;;;;;;5077105;28;20085;-69
2021/12/04 16:06:38;;;;;;;7.72;2.60;;;16.10;99.90;;;;;;5074229;28;20096;-69
2021/12/04 16:09:06;;;;;;;10.50;3.00;;;16.00;99.90;;;;;;5072385;28;20370;-73
2021/12/04 16:11:37;;;;;;;17.10;3.65;;;16.10;99.90;;;;;;5069295;28;20020;-74
2021/12/04 16:14:07;;;;;;;7.33;2.50;;;16.00;99.90;;;;;;5076888;28;20479;-74
2021/12/04 16:16:41;;;;;;;8.55;2.65;;;16.00;99.90;;;;;;5076969;28;20016;-69
2021/12/04 16:19:10;;;;;;;15.73;3.80;;;16.00;99.90;;;;;;5053389;28;20114;-72
2021/12/04 16:21:39;;;;;;;8.35;2.95;;;16.00;99.90;;;;;;5071611;28;20024;-70
2021/12/04 16:24:07;;;;;;;9.80;2.38;;;16.00;99.90;;;;;;5075906;28;20478;-70